Time;durP1;ratioP1;P1;durP2;ratioP2;P2;SDS_P1;SDS_P2;PMS_P1;PMS_P2;Temp;Humidity;BMP_temperature;BMP_pressure;BME280_temperature;BME280_humidity;BME280_pressure;Samples;Min_cycle;Max_cycle;Signal;HPM_P1;HPM_P2
2023/04/21 00:00:59;;;;;;;11.77;6.75;;;9.20;99.90;;;9.23;100.00;100762.53;5148151;28;20050;-82
2023/04/21 00:03:32;;;;;;;12.65;7.18;;;9.20;99.90;;;9.23;100.00;100757.34;5140826;28;20053;-83
2023/04/21 00:06:06;;;;;;;12.43;6.75;;;9.20;99.90;;;9.23;100.00;100757.34;5149305;28;20251;-82
2023/04/21 00:08:39;;;;;;;12.80;6.97;;;9.20;99.90;;;9.26;100.00;100757.47;5156854;28;20046;-82
2023/04/21 00:11:13;;;;;;;12.88;7.70;;;9.20;99.90;;;9.25;100.00;100746.16;5150346;28;20065;-82
2023/04/21 00:13:45;;;;;;;14.13;7.20;;;9.20;99.90;;;9.23;100.00;100752.13;5147233;28;20126;-83
2023/04/21 00:16:17;;;;;;;13.63;7.20;;;9.20;99.90;;;9.25;100.00;100745.28;5147874;28;20065;-83
2023/04/21 00:18:49;;;;;;;13.73;7.38;;;9.20;99.90;;;9.26;100.00;100741.88;5147513;28;20054;-82
2023/04/21 00:21:21;;;;;;;14.05;7.28;;;9.20;99.90;;;9.24;100.00;100748.69;5145816;28;20505;-84
2023/04/21 00:23:55;;;;;;;13.00;7.15;;;9.20;99.90;;;9.23;100.00;100742.63;5147297;28;20051;-83
2023/04/21 00:26:27;;;;;;;13.45;7.00;;;9.20;99.90;;;9.25;100.00;100747.88;5147826;28;20098;-82
2023/04/21 00:28:59;;;;;;;11.13;6.28;;;9.20;99.90;;;9.24;100.00;100738.31;5147115;28;20042;-82
2023/04/21 00:31:32;;;;;;;10.20;5.90;;;9.20;99.90;;;9.21;100.00;100739.09;5139595;28;20046;-83
2023/04/21 00:34:04;;;;;;;12.20;6.78;;;9.20;99.90;;;9.19;100.00;100734.63;5147077;28;20045;-82
2023/04/21 00:36:36;;;;;;;12.32;6.78;;;9.20;99.90;;;9.18;100.00;100738.94;5146201;28;20046;-83
2023/04/21 00:39:09;;;;;;;12.45;6.00;;;9.20;99.90;;;9.18;100.00;100733.75;5144735;28;20531;-83
2023/04/21 00:41:42;;;;;;;12.70;6.40;;;9.10;99.90;;;9.16;100.00;100730.19;5144767;28;20097;-81
2023/04/21 00:44:14;;;;;;;13.50;7.03;;;9.10;99.90;;;9.14;100.00;100731.88;5143233;28;20051;-82
2023/04/21 00:46:47;;;;;;;12.52;6.97;;;9.10;99.90;;;9.14;100.00;100736.19;5146927;28;20051;-83
2023/04/21 00:49:20;;;;;;;11.75;6.45;;;9.10;99.90;;;9.11;100.00;100736.03;5147353;28;20085;-81
2023/04/21 00:51:54;;;;;;;12.40;6.25;;;9.10;99.90;;;9.11;100.00;100733.44;5142089;28;20121;-82
2023/04/21 00:54:28;;;;;;;11.65;6.28;;;9.10;99.90;;;9.09;100.00;100740.31;5143277;28;20043;-82
2023/04/21 00:57:02;;;;;;;13.07;6.72;;;9.10;99.90;;;9.09;100.00;100729.91;5144140;28;20120;-82
2023/04/21 00:59:35;;;;;;;11.50;6.55;;;9.10;99.90;;;9.10;100.00;100729.97;5139715;28;20042;-82
2023/04/21 01:02:07;;;;;;;13.15;7.15;;;9.00;99.90;;;9.09;100.00;100732.50;5146689;28;20039;-84
2023/04/21 01:04:40;;;;;;;11.07;6.07;;;9.10;99.90;;;9.07;100.00;100728.97;5147765;28;20034;-83
2023/04/21 01:07:12;;;;;;;11.27;6.30;;;9.10;99.90;;;9.10;100.00;100731.69;5146576;28;20053;-83
2023/04/21 01:09:46;;;;;;;13.10;6.75;;;9.10;99.90;;;9.12;100.00;100727.41;5146199;28;20086;-82
2023/04/21 01:12:18;;;;;;;11.15;6.15;;;9.10;99.90;;;9.14;100.00;100724.06;5146117;28;20413;-82
2023/04/21 01:14:50;;;;;;;10.02;5.80;;;9.10;99.90;;;9.16;100.00;100721.50;5146823;28;20058;-83
2023/04/21 01:17:22;;;;;;;11.00;5.70;;;9.10;99.90;;;9.17;100.00;100724.16;5146683;28;20424;-83
2023/04/21 01:19:56;;;;;;;11.02;6.63;;;9.20;99.90;;;9.16;100.00;100717.19;5147897;28;20529;-83
2023/04/21 01:22:31;;;;;;;10.70;6.07;;;9.20;99.90;;;9.15;100.00;100722.34;5146261;28;20050;-82
2023/04/21 01:25:06;;;;;;;12.20;6.68;;;9.10;99.90;;;9.16;100.00;100726.72;5146414;28;20046;-81
2023/04/21 01:27:38;;;;;;;11.93;6.35;;;9.10;99.90;;;9.16;100.00;100734.53;5146513;28;20066;-83
2023/04/21 01:30:11;;;;;;;11.52;6.13;;;9.20;99.90;;;9.17;100.00;100726.78;5145897;28;20050;-82
2023/04/21 01:32:43;;;;;;;11.13;6.53;;;9.20;99.90;;;9.19;100.00;100734.63;5147307;28;20081;-83
2023/04/21 01:35:15;;;;;;;13.00;6.78;;;9.20;99.90;;;9.20;100.00;100736.44;5148864;28;20047;-84
2023/04/21 01:37:48;;;;;;;13.15;6.50;;;9.20;99.90;;;9.21;100.00;100733.88;5148467;28;20049;-82
2023/04/21 01:40:20;;;;;;;12.70;6.53;;;9.20;99.90;;;9.21;100.00;100735.59;5147306;28;20465;-83
2023/04/21 01:42:52;;;;;;;14.70;7.82;;;9.20;99.90;;;9.19;100.00;100734.63;5148718;28;20508;-83
2023/04/21 01:45:25;;;;;;;14.00;7.15;;;9.20;99.90;;;9.20;100.00;100736.44;5144210;28;20043;-83
2023/04/21 01:47:57;;;;;;;12.52;6.88;;;9.20;99.90;;;9.20;100.00;100741.63;5157736;28;20037;-86
2023/04/21 01:50:29;;;;;;;15.00;8.25;;;9.20;99.90;;;9.19;100.00;100745.03;5158139;28;20504;-83
2023/04/21 01:53:02;;;;;;;17.65;9.20;;;9.20;99.90;;;9.18;100.00;100749.34;5146919;28;20142;-83
2023/04/21 01:55:34;;;;;;;18.33;9.13;;;9.20;99.90;;;9.16;100.00;100744.91;5146997;28;20065;-83
2023/04/21 01:58:06;;;;;;;19.10;9.60;;;9.20;99.90;;;9.14;100.00;100750.06;5146649;28;20081;-82
2023/04/21 02:00:39;;;;;;;16.13;8.07;;;9.20;99.90;;;9.15;100.00;100740.56;5142307;28;20044;-83
2023/04/21 02:03:11;;;;;;;14.23;7.72;;;9.10;99.90;;;9.17;100.00;100751.91;5143612;28;20138;-83
2023/04/21 02:05:43;;;;;;;13.18;7.28;;;9.20;99.90;;;9.17;100.00;100742.38;5147472;28;20043;-82
2023/04/21 02:08:18;;;;;;;13.00;7.05;;;9.20;99.90;;;9.17;100.00;100744.09;5146326;28;20126;-82
2023/04/21 02:10:51;;;;;;;15.30;7.82;;;9.20;99.90;;;9.15;100.00;100737.94;5146895;28;20133;-83
2023/04/21 02:13:23;;;;;;;15.35;8.57;;;9.20;99.90;;;9.13;100.00;100727.50;5145618;28;20050;-83
2023/04/21 02:15:56;;;;;;;14.02;7.53;;;9.20;99.90;;;9.10;100.00;100729.97;5146322;28;20070;-82
2023/04/21 02:18:28;;;;;;;15.40;7.57;;;9.10;99.90;;;9.10;100.00;100729.06;5145746;28;20038;-83
2023/04/21 02:21:01;;;;;;;15.05;7.47;;;9.10;99.90;;;9.07;100.00;100739.38;5145371;28;20062;-84
2023/04/21 02:23:35;;;;;;;13.88;7.20;;;9.10;99.90;;;9.05;100.00;100730.59;5145812;28;20043;-82
2023/04/21 02:26:07;;;;;;;14.70;6.88;;;9.10;99.90;;;9.03;100.00;100732.25;5146674;28;20035;-82
2023/04/21 02:28:39;;;;;;;13.25;6.78;;;9.10;99.90;;;9.00;100.00;100737.31;5150445;28;20034;-82
2023/04/21 02:31:12;;;;;;;14.65;7.18;;;9.00;99.90;;;8.93;100.00;100723.19;5148643;28;20041;-83
2023/04/21 02:33:45;;;;;;;13.70;7.05;;;9.00;99.90;;;8.88;100.00;100720.44;5147115;28;20062;-82
2023/04/21 02:36:17;;;;;;;13.02;6.82;;;8.90;99.90;;;8.83;100.00;100719.34;5149485;28;20517;-81
2023/04/21 02:38:51;;;;;;;13.43;6.80;;;8.90;99.90;;;8.76;100.00;100721.63;5155118;28;20125;-83
2023/04/21 02:41:23;;;;;;;11.85;6.10;;;8.80;99.90;;;8.70;100.00;100722.28;5147462;28;20039;-83
2023/04/21 02:43:55;;;;;;;14.15;7.05;;;8.70;99.90;;;8.61;100.00;100727.09;5147595;28;20075;-82
2023/04/21 02:46:27;;;;;;;11.60;6.43;;;8.70;99.90;;;8.58;100.00;100721.75;5146092;28;20079;-82
2023/04/21 02:48:59;;;;;;;11.13;5.97;;;8.60;99.90;;;8.52;100.00;100725.00;5146776;28;20043;-82
2023/04/21 02:51:32;;;;;;;11.10;6.40;;;8.50;99.90;;;8.49;100.00;100729.19;5151064;28;20034;-84
2023/04/21 02:54:06;;;;;;;14.18;6.70;;;8.50;99.90;;;8.47;100.00;100743.78;5150857;28;20501;-83
2023/04/21 02:56:38;;;;;;;14.68;7.30;;;8.50;99.90;;;8.44;100.00;100739.38;5153201;28;20046;-83
2023/04/21 02:59:15;;;;;;;13.73;7.00;;;8.40;99.90;;;8.39;100.00;100736.56;5157908;28;20051;-82
2023/04/21 03:01:48;;;;;;;12.25;5.82;;;8.40;99.90;;;8.36;100.00;100731.25;5157078;28;20390;-82
2023/04/21 03:04:20;;;;;;;12.35;6.55;;;8.40;99.90;;;8.35;100.00;100728.56;5150036;28;20051;-83
2023/04/21 03:06:52;;;;;;;12.18;6.63;;;8.30;99.90;;;8.30;100.00;100730.97;5151314;28;20413;-82
2023/04/21 03:09:25;;;;;;;11.75;5.93;;;8.30;99.90;;;8.26;100.00;100733.34;5151553;28;20495;-83
2023/04/21 03:11:58;;;;;;;14.27;6.82;;;8.30;99.90;;;8.21;100.00;100727.94;5152294;28;20043;-83
2023/04/21 03:14:30;;;;;;;12.88;6.60;;;8.30;99.90;;;8.14;100.00;100734.59;5151456;28;20053;-81
2023/04/21 03:17:02;;;;;;;14.43;7.60;;;8.20;99.90;;;8.11;100.00;100738.78;5151609;28;20053;-82
2023/04/21 03:19:36;;;;;;;14.18;7.50;;;8.20;99.90;;;8.08;100.00;100738.63;5149639;28;20111;-83
2023/04/21 03:22:08;;;;;;;11.38;6.38;;;8.10;99.90;;;8.06;100.00;100735.09;5150334;28;20115;-83
2023/04/21 03:24:42;;;;;;;13.35;6.60;;;8.10;99.90;;;8.02;100.00;100733.16;5143328;28;20086;-82
2023/04/21 03:27:14;;;;;;;11.15;6.28;;;8.10;99.90;;;8.01;100.00;100741.78;5151140;28;20054;-81
2023/04/21 03:29:46;;;;;;;13.98;7.20;;;8.00;99.90;;;7.99;100.00;100743.44;5149919;28;20054;-84
2023/04/21 03:32:18;;;;;;;14.50;6.85;;;8.00;99.90;;;7.97;100.00;100734.69;5150000;28;20109;-83
2023/04/21 03:34:50;;;;;;;13.38;6.68;;;8.00;99.90;;;7.94;100.00;100750.13;5152596;28;20053;-83
2023/04/21 03:37:24;;;;;;;12.50;6.28;;;7.90;99.90;;;7.92;100.00;100746.56;5152709;28;20054;-83
2023/04/21 03:39:58;;;;;;;14.50;7.13;;;8.00;99.90;;;7.85;100.00;100729.84;5150910;28;20047;-82
2023/04/21 03:42:30;;;;;;;13.93;6.90;;;7.90;99.90;;;7.80;100.00;100737.41;5150502;28;20138;-83
2023/04/21 03:45:03;;;;;;;14.48;6.78;;;7.90;99.90;;;7.74;100.00;100739.72;5151237;28;20114;-83
2023/04/21 03:47:38;;;;;;;12.85;7.25;;;7.80;99.90;;;7.69;100.00;100746.41;5150022;28;20042;-84
2023/04/21 03:50:10;;;;;;;12.32;6.43;;;7.70;99.90;;;7.67;100.00;100747.16;5149439;28;20529;-83
2023/04/21 03:52:42;;;;;;;11.73;6.53;;;7.70;99.90;;;7.63;100.00;100743.56;5141018;28;20126;-84
2023/04/21 03:55:16;;;;;;;12.73;6.20;;;7.70;99.90;;;7.61;100.00;100740.00;5149473;28;20110;-82
2023/04/21 03:57:48;;;;;;;12.68;6.70;;;7.70;99.90;;;7.61;100.00;100745.19;5149807;28;20416;-83
2023/04/21 04:00:20;;;;;;;14.20;6.88;;;7.60;99.90;;;7.60;100.00;100738.22;5150486;28;20101;-82
2023/04/21 04:02:52;;;;;;;12.43;6.00;;;7.60;99.90;;;7.59;100.00;100741.63;5148573;28;20078;-82
2023/04/21 04:05:24;;;;;;;13.80;6.80;;;7.60;99.90;;;7.57;100.00;100740.69;5148457;28;20102;-80
2023/04/21 04:07:56;;;;;;;13.45;7.20;;;7.60;99.90;;;7.58;100.00;100730.38;5148870;28;20053;-82
2023/04/21 04:10:29;;;;;;;14.98;7.47;;;7.60;99.90;;;7.56;100.00;100729.44;5148893;28;20050;-81
2023/04/21 04:13:02;;;;;;;12.13;6.78;;;7.60;99.90;;;7.55;100.00;100732.81;5148845;28;20085;-80
2023/04/21 04:15:34;;;;;;;13.13;6.97;;;7.60;99.90;;;7.54;100.00;100732.75;5157580;28;20041;-81
2023/04/21 04:18:06;;;;;;;13.95;6.68;;;7.60;99.90;;;7.51;100.00;100723.13;5149992;28;20049;-82
2023/04/21 04:20:38;;;;;;;12.43;6.95;;;7.50;99.90;;;7.49;100.00;100734.22;5148423;28;20041;-82
2023/04/21 04:23:10;;;;;;;12.55;6.65;;;7.50;99.90;;;7.45;100.00;100733.22;5148924;28;20058;-83
2023/04/21 04:25:44;;;;;;;13.30;6.60;;;7.50;99.90;;;7.43;100.00;100741.72;5147453;28;20051;-83
2023/04/21 04:28:16;;;;;;;12.73;6.90;;;7.50;99.90;;;7.43;100.00;100744.31;5149512;28;20051;-81
2023/04/21 04:30:48;;;;;;;14.23;6.90;;;7.50;99.90;;;7.40;100.00;100739.00;5147690;28;20051;-82
2023/04/21 04:33:20;;;;;;;14.80;7.22;;;7.50;99.90;;;7.40;100.00;100733.81;5147880;28;20505;-83
2023/04/21 04:35:53;;;;;;;13.88;6.72;;;7.40;99.90;;;7.38;100.00;100735.47;5147753;28;20039;-83
2023/04/21 04:38:27;;;;;;;12.85;6.55;;;7.40;99.90;;;7.35;100.00;100741.38;5147961;28;20054;-81
2023/04/21 04:41:01;;;;;;;12.35;6.63;;;7.40;99.90;;;7.32;100.00;100736.06;5147901;28;20101;-82
2023/04/21 04:43:35;;;;;;;12.98;6.68;;;7.40;99.90;;;7.31;100.00;100732.59;5147871;28;20498;-82
2023/04/21 04:46:08;;;;;;;12.30;5.95;;;7.40;99.90;;;7.29;100.00;100731.59;5150106;28;20042;-83
2023/04/21 04:48:40;;;;;;;11.52;5.97;;;7.40;99.90;;;7.30;100.00;100738.59;5151621;28;20043;-82
2023/04/21 04:51:12;;;;;;;13.10;6.32;;;7.40;99.90;;;7.30;100.00;100742.88;5160488;28;20031;-81
2023/04/21 04:53:44;;;;;;;13.27;6.57;;;7.40;99.90;;;7.31;100.00;100739.47;5152615;28;20038;-82
2023/04/21 04:56:17;;;;;;;13.05;6.65;;;7.40;99.90;;;7.32;100.00;100747.31;5148006;28;20043;-83
2023/04/21 04:58:49;;;;;;;13.48;6.72;;;7.40;99.90;;;7.33;100.00;100743.91;5148584;28;20046;-83
2023/04/21 05:01:26;;;;;;;13.00;6.90;;;7.40;99.90;;;7.36;100.00;100745.75;5147234;28;20137;-82
2023/04/21 05:03:58;;;;;;;13.75;6.85;;;7.40;99.90;;;7.39;100.00;100747.63;5147865;28;20058;-82
2023/04/21 05:06:31;;;;;;;13.63;6.65;;;7.40;99.90;;;7.40;100.00;100739.00;5149381;28;20038;-82
2023/04/21 05:09:04;;;;;;;14.25;7.03;;;7.40;99.90;;;7.43;100.00;100744.31;5147994;28;20608;-82
2023/04/21 05:11:37;;;;;;;13.20;6.75;;;7.50;99.90;;;7.45;100.00;100741.00;5147255;28;20115;-83
2023/04/21 05:14:09;;;;;;;12.55;6.30;;;7.50;99.90;;;7.49;100.00;100744.63;5148874;28;20042;-82
2023/04/21 05:16:43;;;;;;;11.93;5.88;;;7.60;99.90;;;7.49;100.00;100748.09;5156217;28;20141;-83
2023/04/21 05:19:15;;;;;;;13.65;6.47;;;7.60;99.90;;;7.49;100.00;100753.28;5148394;28;20054;-81
2023/04/21 05:21:47;;;;;;;14.48;6.78;;;7.50;99.90;;;7.50;100.00;100746.41;5149001;28;20047;-81
2023/04/21 05:24:23;;;;;;;13.60;7.07;;;7.60;99.90;;;7.51;100.00;100753.38;5148104;28;20043;-81
2023/04/21 05:26:56;;;;;;;14.15;7.70;;;7.60;99.90;;;7.51;100.00;100751.66;5176095;23;20410;-70
2023/04/21 05:29:28;;;;;;;14.80;7.13;;;7.60;99.90;;;7.52;100.00;100752.56;5162185;28;20054;-72
2023/04/21 05:32:01;;;;;;;16.73;8.32;;;7.60;99.90;;;7.54;100.00;100758.69;5163176;28;20042;-71
2023/04/21 05:34:33;;;;;;;14.57;6.85;;;7.60;99.90;;;7.53;100.00;100762.09;5173723;28;20092;-71
2023/04/21 05:37:05;;;;;;;14.85;7.60;;;7.60;99.90;;;7.52;100.00;100761.22;5158182;28;20118;-71
2023/04/21 05:39:38;;;;;;;14.75;7.53;;;7.60;99.90;;;7.54;100.00;100763.88;5151193;28;20510;-70
2023/04/21 05:42:12;;;;;;;14.63;6.75;;;7.60;99.90;;;7.55;100.00;100763.06;5150533;28;20042;-72
2023/04/21 05:44:44;;;;;;;14.82;7.38;;;7.60;99.90;;;7.58;100.00;100763.22;5151224;28;20047;-71
2023/04/21 05:47:16;;;;;;;14.20;6.93;;;7.60;99.90;;;7.59;100.00;100758.09;5143203;28;20043;-71
2023/04/21 05:49:52;;;;;;;14.75;6.82;;;7.60;99.90;;;7.59;100.00;100765.88;5150144;28;20042;-71
2023/04/21 05:52:24;;;;;;;15.30;7.28;;;7.60;99.90;;;7.58;100.00;100769.28;5143013;28;20047;-71
2023/04/21 05:54:58;;;;;;;15.10;6.80;;;7.60;99.90;;;7.62;100.00;100778.97;5143271;28;20049;-71
2023/04/21 05:57:31;;;;;;;14.25;7.00;;;7.70;99.90;;;7.66;100.00;100773.94;5152392;28;20053;-71
2023/04/21 06:00:06;;;;;;;16.10;7.45;;;7.70;99.90;;;7.69;100.00;100780.13;5163400;28;20039;-71
2023/04/21 06:02:38;;;;;;;15.50;7.65;;;7.70;99.90;;;7.74;100.00;100763.09;5151074;28;20043;-72
2023/04/21 06:05:11;;;;;;;15.13;7.22;;;7.80;99.90;;;7.81;100.00;100769.44;5142859;28;20051;-61
2023/04/21 06:07:43;;;;;;;17.42;7.07;;;7.80;99.90;;;7.87;100.00;100756.75;5141962;28;20339;-60
2023/04/21 06:10:15;;;;;;;15.90;7.32;;;7.90;99.90;;;7.94;100.00;100761.38;5142541;28;20123;-61
2023/04/21 06:12:48;;;;;;;15.32;7.47;;;7.90;99.90;;;8.01;100.00;100758.25;5142119;28;20042;-61
2023/04/21 06:15:20;;;;;;;14.75;7.35;;;8.00;99.90;;;8.08;100.00;100754.19;5142057;28;20163;-60
2023/04/21 06:17:54;;;;;;;19.42;8.98;;;8.10;99.90;;;8.16;100.00;100758.06;5142308;28;20496;-59
2023/04/21 06:20:27;;;;;;;14.93;7.95;;;8.20;99.90;;;8.28;100.00;100765.47;5141869;28;20074;-60
2023/04/21 06:22:59;;;;;;;17.10;8.52;;;8.30;99.90;;;8.37;100.00;100759.00;5142058;28;20046;-60
2023/04/21 06:25:31;;;;;;;17.48;8.30;;;8.40;99.90;;;8.46;100.00;100762.81;5144622;28;20412;-60
2023/04/21 06:28:04;;;;;;;20.13;9.05;;;8.40;99.90;;;8.50;100.00;100759.53;5145988;28;20054;-60
2023/04/21 06:30:37;;;;;;;17.45;8.75;;;8.50;99.90;;;8.58;100.00;100753.81;5145313;28;20506;-60
2023/04/21 06:33:09;;;;;;;17.95;8.48;;;8.50;99.90;;;8.66;100.00;100744.63;5145998;28;20043;-60
2023/04/21 06:35:41;;;;;;;19.60;9.38;;;8.60;99.90;;;8.77;100.00;100746.81;5145759;28;20462;-60
2023/04/21 06:38:13;;;;;;;17.85;8.00;;;8.70;99.90;;;8.87;100.00;100747.25;5145848;28;20462;-60
2023/04/21 06:40:45;;;;;;;19.48;9.32;;;8.80;99.90;;;9.09;100.00;100748.13;5145418;28;20074;-60
2023/04/21 06:43:18;;;;;;;24.80;11.77;;;9.00;99.90;;;9.58;100.00;100753.50;5145754;28;20043;-61
2023/04/21 06:45:50;;;;;;;27.55;12.27;;;9.30;99.90;;;10.06;100.00;100741.41;5138037;28;20046;-62
2023/04/21 06:48:23;;;;;;;26.38;11.88;;;9.70;99.90;;;10.50;100.00;100756.88;5145558;28;20038;-61
2023/04/21 06:50:55;;;;;;;26.65;11.75;;;10.10;99.90;;;10.91;100.00;100758.25;5145567;28;20035;-60
2023/04/21 06:53:27;;;;;;;23.23;11.32;;;10.60;99.90;;;11.07;100.00;100754.41;5145514;28;20443;-60
2023/04/21 06:55:59;;;;;;;22.13;10.43;;;10.80;99.90;;;10.98;100.00;100752.41;5145655;28;20047;-60
2023/04/21 06:58:33;;;;;;;21.13;10.38;;;10.80;99.90;;;10.89;100.00;100752.13;5145361;28;20043;-58
2023/04/21 07:01:06;;;;;;;21.30;11.50;;;10.80;99.90;;;10.81;100.00;100751.84;5145896;28;20483;-60
2023/04/21 07:03:38;;;;;;;22.67;11.20;;;10.70;99.90;;;10.75;100.00;100750.75;5143456;28;20537;-58
2023/04/21 07:06:11;;;;;;;19.05;10.07;;;10.70;99.90;;;10.78;100.00;100751.75;5145244;28;20039;-58
2023/04/21 07:08:43;;;;;;;22.67;10.60;;;10.70;99.90;;;11.07;100.00;100739.66;5145142;28;20034;-59
2023/04/21 07:11:15;;;;;;;23.40;11.32;;;10.90;99.90;;;11.68;100.00;100745.88;5145038;28;20043;-59
2023/04/21 07:13:48;;;;;;;21.80;10.70;;;11.30;99.90;;;12.37;100.00;100745.22;5144981;28;20286;-59
2023/04/21 07:16:21;;;;;;;22.05;11.10;;;11.80;99.90;;;12.94;100.00;100753.69;5144751;28;20407;-59
2023/04/21 07:18:53;;;;;;;18.98;8.10;;;12.30;99.90;;;13.50;100.00;100748.03;5145295;28;20111;-61
2023/04/21 07:21:25;;;;;;;16.27;7.80;;;12.90;99.90;;;13.91;100.00;100755.91;5109244;28;20052;-59
2023/04/21 07:23:57;;;;;;;16.58;8.27;;;13.40;99.90;;;14.28;100.00;100747.00;5097736;28;20070;-60
2023/04/21 07:26:29;;;;;;;17.13;8.50;;;13.80;99.90;;;14.42;100.00;100744.66;5147773;28;20090;-61
2023/04/21 07:29:03;;;;;;;16.80;8.30;;;14.10;99.90;;;14.66;100.00;100745.09;5144800;28;20400;-60
2023/04/21 07:31:35;;;;;;;15.63;8.32;;;14.30;99.90;;;15.08;99.02;100747.56;5144506;28;20126;-61
2023/04/21 07:34:07;;;;;;;18.33;8.98;;;14.60;99.90;;;15.43;97.66;100748.09;5144637;28;20051;-62
2023/04/21 07:36:39;;;;;;;17.95;8.30;;;14.90;99.90;;;15.70;95.83;100744.09;5142284;28;20055;-60
2023/04/21 07:39:11;;;;;;;15.40;8.15;;;15.20;99.90;;;15.86;93.83;100746.09;5144596;28;20577;-60
2023/04/21 07:41:43;;;;;;;15.57;8.35;;;15.40;99.90;;;16.11;93.17;100754.28;5142700;28;20050;-60
2023/04/21 07:44:23;;;;;;;16.20;8.00;;;15.60;99.90;;;16.23;92.10;100747.38;5144623;28;20129;-60
2023/04/21 07:46:55;;;;;;;16.70;8.60;;;15.70;99.90;;;16.21;89.22;100745.59;5144698;28;20031;-60
2023/04/21 07:49:28;;;;;;;12.40;7.38;;;15.70;99.90;;;15.93;89.96;100750.56;5144042;28;20047;-60
2023/04/21 07:52:00;;;;;;;14.05;7.07;;;15.60;99.90;;;15.66;90.49;100742.31;5144202;28;20038;-59
2023/04/21 07:54:32;;;;;;;14.77;7.88;;;15.40;99.90;;;15.36;89.92;100756.75;5144104;28;20050;-59
2023/04/21 07:57:06;;;;;;;15.38;7.85;;;15.20;99.90;;;14.90;89.78;100761.28;5134848;28;20043;-59
2023/04/21 07:59:39;;;;;;;15.50;7.72;;;14.90;99.90;;;14.42;91.68;100761.28;5133422;28;20294;-59
2023/04/21 08:02:11;;;;;;;14.77;6.97;;;14.40;99.90;;;14.18;93.88;100755.56;5133100;28;20047;-59
2023/04/21 08:04:43;;;;;;;21.60;11.20;;;14.10;99.90;;;13.97;96.16;100756.03;5142421;28;20051;-59
2023/04/21 08:07:15;;;;;;;16.25;8.45;;;13.80;99.90;;;13.84;97.02;100744.41;5143752;28;20043;-60
2023/04/21 08:09:47;;;;;;;15.82;8.00;;;13.70;99.90;;;13.74;97.88;100759.03;5142172;28;20057;-60
2023/04/21 08:12:19;;;;;;;16.25;7.97;;;13.50;99.90;;;13.64;99.70;100753.59;5142435;28;20073;-60
2023/04/21 08:14:53;;;;;;;18.73;9.43;;;13.40;99.90;;;13.71;99.31;100743.25;5141990;28;20038;-59
2023/04/21 08:17:25;;;;;;;16.17;8.85;;;13.40;99.90;;;13.76;99.52;100741.63;5142769;28;20050;-58
2023/04/21 08:19:57;;;;;;;20.00;9.07;;;13.40;99.90;;;13.72;99.88;100755.50;5141413;28;20047;-59
2023/04/21 08:22:29;;;;;;;16.05;8.48;;;13.40;99.90;;;13.78;100.00;100744.28;5140699;28;20133;-59
2023/04/21 08:25:02;;;;;;;17.63;9.38;;;13.40;99.90;;;14.01;100.00;100743.00;5140937;28;20050;-58
2023/04/21 08:27:34;;;;;;;15.23;8.32;;;13.50;99.90;;;14.63;99.42;100747.69;5138759;28;20051;-59
2023/04/21 08:30:09;;;;;;;15.93;7.70;;;13.70;99.90;;;15.33;94.85;100756.72;5140122;28;20034;-59
2023/04/21 08:32:42;;;;;;;15.50;8.05;;;14.10;99.90;;;15.56;92.69;100748.28;5140045;28;20042;-58
2023/04/21 08:35:14;;;;;;;13.98;7.43;;;14.40;99.90;;;15.53;92.73;100748.25;5143037;28;20051;-61
2023/04/21 08:37:47;;;;;;;12.70;7.10;;;14.50;99.90;;;15.55;94.05;100744.75;5143007;28;20046;-59
2023/04/21 08:40:19;;;;;;;16.10;7.05;;;14.60;99.90;;;15.68;92.93;100741.47;5143313;28;20407;-59
2023/04/21 08:42:51;;;;;;;13.48;6.97;;;14.70;99.90;;;15.72;93.11;100745.91;5143818;28;20050;-59
2023/04/21 08:45:26;;;;;;;15.23;7.93;;;14.80;99.90;;;16.40;93.06;100747.56;5143329;28;20051;-60
2023/04/21 08:47:59;;;;;;;;;;;15.10;99.90;;;17.60;88.77;100739.78;5135217;28;20042;-59
2023/04/21 08:50:32;;;;;;;11.85;6.75;;;15.80;99.90;;;18.75;83.86;100734.00;5142672;28;19922;-60
2023/04/21 08:53:04;;;;;;;14.45;8.30;;;16.70;99.90;;;18.82;80.12;100738.41;5143106;28;20054;-59
2023/04/21 08:55:37;;;;;;;13.55;7.45;;;17.00;99.90;;;18.37;80.40;100745.34;5142843;28;20040;-60
2023/04/21 08:58:09;;;;;;;13.88;7.18;;;17.00;99.70;;;18.55;80.41;100737.47;5142922;28;20400;-59
2023/04/21 09:00:42;;;;;;;12.25;6.82;;;17.00;99.70;;;19.01;79.31;100745.44;5142458;28;20451;-58
2023/04/21 09:03:21;;;;;;;15.65;8.52;;;17.30;99.30;;;18.67;79.61;100737.53;5142982;28;20046;-60
2023/04/21 09:06:01;;;;;;;13.93;7.07;;;17.20;98.70;;;19.45;79.53;100740.09;5142735;28;20423;-60
2023/04/21 09:08:37;;;;;;;;;;;17.70;99.20;;;19.84;76.77;100740.91;5143302;28;20483;-60
2023/04/21 09:11:13;;;;;;;13.45;6.97;;;18.10;97.50;;;20.29;74.48;100738.91;5142320;28;19926;-60
2023/04/21 09:13:45;;;;;;;13.73;7.03;;;18.60;95.90;;;20.37;73.66;100736.22;5142700;28;20074;-60
2023/04/21 09:16:21;;;;;;;13.70;7.97;;;18.90;94.60;;;19.99;72.09;100737.31;5143077;28;20034;-60
2023/04/21 09:18:53;;;;;;;11.98;7.22;;;18.90;92.50;;;19.53;73.80;100732.16;5142628;28;20039;-60
2023/04/21 09:21:30;;;;;;;11.60;6.22;;;18.70;92.70;;;19.10;76.28;100733.97;5142335;28;20074;-59
2023/04/21 09:24:06;;;;;;;12.80;7.03;;;18.50;93.70;;;19.20;77.39;100731.34;5135632;28;20039;-60
2023/04/21 09:26:38;;;;;;;14.15;7.68;;;18.50;94.50;;;19.23;75.29;100735.72;5142386;28;20051;-60
2023/04/21 09:29:10;;;;;;;13.20;7.68;;;18.50;93.10;;;19.17;75.89;100734.00;5142606;28;20046;-58
2023/04/21 09:31:44;;;;;;;14.02;7.90;;;18.50;93.30;;;19.15;75.78;100732.22;5142352;28;20129;-60
2023/04/21 09:34:23;;;;;;;15.77;8.00;;;18.50;93.10;;;19.00;75.61;100724.31;5142646;28;20047;-60
2023/04/21 09:37:03;;;;;;;15.05;8.10;;;18.40;92.80;;;18.55;75.85;100721.63;5142136;28;20049;-58
2023/04/21 09:39:35;;;;;;;13.60;7.57;;;18.10;92.50;;;18.30;77.49;100711.91;5140830;28;20161;-60
2023/04/21 09:42:10;;;;;;;13.15;7.30;;;18.00;93.60;;;18.26;80.06;100715.44;5142748;28;20039;-57
2023/04/21 09:44:42;;;;;;;17.05;8.82;;;17.80;94.90;;;18.54;80.41;100711.97;5142409;28;20054;-57
2023/04/21 09:47:17;;;;;;;17.35;8.70;;;18.00;95.50;;;18.67;78.16;100702.31;5141244;28;20054;-58
2023/04/21 09:49:52;;;;;;;16.08;8.73;;;18.10;94.40;;;18.50;78.47;100698.75;5142028;28;20507;-57
2023/04/21 09:52:26;;;;;;;13.00;7.45;;;18.00;94.40;;;18.36;78.96;100704.00;5142655;28;20050;-59
2023/04/21 09:55:03;;;;;;;15.00;7.75;;;17.90;94.50;;;18.14;80.13;100700.47;5133908;28;20046;-58
2023/04/21 09:57:40;;;;;;;21.00;9.45;;;17.70;95.10;;;17.89;79.32;100691.59;5135640;28;20063;-58
2023/04/21 10:00:14;;;;;;;14.40;7.85;;;17.60;94.50;;;17.69;79.65;100706.44;5138122;28;20038;-58
2023/04/21 10:02:50;;;;;;;12.77;6.90;;;17.30;94.60;;;17.43;80.91;100686.09;5141426;28;20588;-60
2023/04/21 10:05:23;;;;;;;15.25;6.85;;;17.10;95.40;;;17.37;81.36;100691.34;5144590;28;20404;-59
2023/04/21 10:07:55;;;;;;;13.88;7.47;;;17.10;95.70;;;16.99;81.75;100691.97;5147608;28;20134;-60
2023/04/21 10:10:30;;;;;;;13.48;7.57;;;16.80;95.50;;;17.05;82.52;100681.47;5148755;28;20049;-57
2023/04/21 10:13:04;;;;;;;14.90;7.32;;;16.80;96.20;;;17.38;82.41;100669.38;5141673;28;20546;-59
2023/04/21 10:15:39;;;;;;;11.77;7.07;;;16.90;96.60;;;17.92;82.81;100666.97;5138787;28;20062;-57
2023/04/21 10:18:21;;;;;;;13.15;6.35;;;17.30;97.30;;;18.46;81.67;100670.63;5148824;28;20045;-59
2023/04/21 10:20:55;;;;;;;14.60;7.18;;;17.70;97.30;;;18.65;77.39;100667.97;5146792;28;20051;-59
2023/04/21 10:23:39;;;;;;;14.25;7.53;;;18.00;94.40;;;18.76;77.71;100669.75;5148690;28;20047;-58
2023/04/21 10:26:19;;;;;;;12.15;6.82;;;18.10;94.20;;;18.99;78.18;100673.25;5141615;28;20094;-59
2023/04/21 10:28:58;;;;;;;13.55;7.25;;;18.30;94.60;;;19.05;76.42;100667.97;5148255;28;20043;-58
2023/04/21 10:31:33;;;;;;;13.88;7.20;;;18.40;93.40;;;18.85;74.54;100665.34;5147745;28;20053;-60
2023/04/21 10:34:21;;;;;;;12.70;6.90;;;18.40;92.00;;;18.72;75.32;100654.81;5140136;28;20070;-58